Fort Polk, Louisiana
Current Conditions -  °F | °C
As of 8:58 AM on Thursday 23 Oct 2014 (Local Time) from KPOE Reporting Station
Broken Clouds Broken Clouds  
Wind Chill: 57°   Ceiling: 25000
Heat Index: 57°   Visibility: 10mi
Dew Point: 49°   Wind: 5mph
Humidity: 77%   Direction: 80°E
Pressure: 30.13"   Gusts: NA
Location:  30.9864°N, 93.2144°W
Report Text: KPOE 231358Z AUTO 08004KT 10SM SCT180 BKN250 14/10 A3013 RMK AO2 SLP204 T01370097
Loading
Personal Weather Stations






























Interactive Weather Map
Tropical Storm Tracking
New forecast layout! Learn more

10-Day Weather Forecast

Advertisements
Track Severe Weather on mobile